Aviation Digital Data Service (ADDS)

Output produced by METARs form (1506 UTC 20 March 2019)
found at http://www.aviationweather.gov/metar/data/
 
METAR text: WIHH 201200Z 26005KT 6000 FEW020 29/23 Q1008 NOSIG
Conditions at: WIHH (HALIM PERDANAKUS, ID) observed 1200 UTC 20 March 2019
Temperature: 29.0°C (84°F)
Dewpoint: 23.0°C (73°F) [RH = 70%]
Pressure (altimeter): 29.76 inches Hg (1008.0 mb)
Winds: from the W (260 degrees) at 6 MPH (5 knots; 2.6 m/s)
Visibility: 4 miles ( 6 km)
Ceiling: at least 12,000 feet AGL
Clouds: few clouds at 2000 feet AGL
Weather: no significant weather observed at this time

METAR text: WIHH 201100Z 27008KT 6000 FEW020 29/22 Q1008 NOSIG
Conditions at: WIHH (HALIM PERDANAKUS, ID) observed 1100 UTC 20 March 2019
Temperature: 29.0°C (84°F)
Dewpoint: 22.0°C (72°F) [RH = 66%]
Pressure (altimeter): 29.76 inches Hg (1008.0 mb)
Winds: from the W (270 degrees) at 9 MPH (8 knots; 4.1 m/s)
Visibility: 4 miles ( 6 km)
Ceiling: at least 12,000 feet AGL
Clouds: few clouds at 2000 feet AGL
Weather: no significant weather observed at this time

METAR text: WIHH 201000Z 25012KT 6000 FEW020 30/23 Q1007 NOSIG
Conditions at: WIHH (HALIM PERDANAKUS, ID) observed 1000 UTC 20 March 2019
Temperature: 30.0°C (86°F)
Dewpoint: 23.0°C (73°F) [RH = 66%]
Pressure (altimeter): 29.73 inches Hg (1007.0 mb)
Winds: from the WSW (250 degrees) at 14 MPH (12 knots; 6.2 m/s)
Visibility: 4 miles ( 6 km)
Ceiling: at least 12,000 feet AGL
Clouds: few clouds at 2000 feet AGL
Weather: no significant weather observed at this time

METAR text: WIHH 200900Z 24012KT 6000 -RA FEW017CB SCT017 30/23 Q1006 RMK CB TO SE AND N
Conditions at: WIHH (HALIM PERDANAKUS, ID) observed 0900 UTC 20 March 2019
Temperature: 30.0°C (86°F)
Dewpoint: 23.0°C (73°F) [RH = 66%]
Pressure (altimeter): 29.70 inches Hg (1006.0 mb)
Winds: from the WSW (240 degrees) at 14 MPH (12 knots; 6.2 m/s)
Visibility: 4 miles ( 6 km)
Ceiling: at least 12,000 feet AGL
Clouds: few clouds at 1700 feet AGL
scattered clouds at 1700 feet AGL
Weather: -RA  (light rain)

METAR text: WIHH 200600Z 35005KT 6000 SCT018 32/24 Q1008 NOSIG
Conditions at: WIHH (HALIM PERDANAKUS, ID) observed 0600 UTC 20 March 2019
Temperature: 32.0°C (90°F)
Dewpoint: 24.0°C (75°F) [RH = 63%]
Pressure (altimeter): 29.76 inches Hg (1008.0 mb)
Winds: from the N (350 degrees) at 6 MPH (5 knots; 2.6 m/s)
Visibility: 4 miles ( 6 km)
Ceiling: at least 12,000 feet AGL
Clouds: scattered clouds at 1800 feet AGL
Weather: no significant weather observed at this time

METAR text: WIHH 200500Z 33008KT 5000 -RA SCT018 31/23 Q1009 NOSIG
Conditions at: WIHH (HALIM PERDANAKUS, ID) observed 0500 UTC 20 March 2019
Temperature: 31.0°C (88°F)
Dewpoint: 23.0°C (73°F) [RH = 63%]
Pressure (altimeter): 29.79 inches Hg (1009.0 mb)
Winds: from the NNW (330 degrees) at 9 MPH (8 knots; 4.1 m/s)
Visibility: 3 miles ( 5 km)
Ceiling: at least 12,000 feet AGL
Clouds: scattered clouds at 1800 feet AGL
Weather: -RA  (light rain)

METAR text: WIHH 200400Z 30005KT 7000 SCT020 32/24 Q1010 NOSIG
Conditions at: WIHH (HALIM PERDANAKUS, ID) observed 0400 UTC 20 March 2019
Temperature: 32.0°C (90°F)
Dewpoint: 24.0°C (75°F) [RH = 63%]
Pressure (altimeter): 29.82 inches Hg (1010.0 mb)
Winds: from the WNW (300 degrees) at 6 MPH (5 knots; 2.6 m/s)
Visibility: 4 miles ( 7 km)
Ceiling: at least 12,000 feet AGL
Clouds: scattered clouds at 2000 feet AGL
Weather: no significant weather observed at this time

METAR text: WIHH 200200Z 28005KT 7000 SCT017 30/24 Q1010 NOSIG
Conditions at: WIHH (HALIM PERDANAKUS, ID) observed 0200 UTC 20 March 2019
Temperature: 30.0°C (86°F)
Dewpoint: 24.0°C (75°F) [RH = 70%]
Pressure (altimeter): 29.82 inches Hg (1010.0 mb)
Winds: from the W (280 degrees) at 6 MPH (5 knots; 2.6 m/s)
Visibility: 4 miles ( 7 km)
Ceiling: at least 12,000 feet AGL
Clouds: scattered clouds at 1700 feet AGL
Weather: no significant weather observed at this time

METAR text: WIHH 200000Z 26004KT 7000 NSW 26/24 Q1010 NOSIG
Conditions at: WIHH (HALIM PERDANAKUS, ID) observed 0000 UTC 20 March 2019
Temperature: 26.0°C (79°F)
Dewpoint: 24.0°C (75°F) [RH = 89%]
Pressure (altimeter): 29.82 inches Hg (1010.0 mb)
Winds: from the W (260 degrees) at 5 MPH (4 knots; 2.1 m/s)
Visibility: 4 miles ( 7 km)
Ceiling: unknown
Clouds: missing
Weather: no significant weather observed at this time

METAR text: WIHH 192300Z 28004KT 6000 FEW022 25/23 Q1009 NOSIG
Conditions at: WIHH (HALIM PERDANAKUS, ID) observed 2300 UTC 19 March 2019
Temperature: 25.0°C (77°F)
Dewpoint: 23.0°C (73°F) [RH = 89%]
Pressure (altimeter): 29.79 inches Hg (1009.0 mb)
Winds: from the W (280 degrees) at 5 MPH (4 knots; 2.1 m/s)
Visibility: 4 miles ( 6 km)
Ceiling: at least 12,000 feet AGL
Clouds: few clouds at 2200 feet AGL
Weather: no significant weather observed at this time

METAR text: WIHH 191200Z 25010KT 7000 FEW022 27/23 Q1008 NOSIG
Conditions at: WIHH (HALIM PERDANAKUS, ID) observed 1200 UTC 19 March 2019
Temperature: 27.0°C (81°F)
Dewpoint: 23.0°C (73°F) [RH = 79%]
Pressure (altimeter): 29.76 inches Hg (1008.0 mb)
Winds: from the WSW (250 degrees) at 12 MPH (10 knots; 5.1 m/s)
Visibility: 4 miles ( 7 km)
Ceiling: at least 12,000 feet AGL
Clouds: few clouds at 2200 feet AGL
Weather: no significant weather observed at this time

METAR text: WIHH 191100Z 25010KT 7000 SCT022 27/23 Q1008 NOSIG
Conditions at: WIHH (HALIM PERDANAKUS, ID) observed 1100 UTC 19 March 2019
Temperature: 27.0°C (81°F)
Dewpoint: 23.0°C (73°F) [RH = 79%]
Pressure (altimeter): 29.76 inches Hg (1008.0 mb)
Winds: from the WSW (250 degrees) at 12 MPH (10 knots; 5.1 m/s)
Visibility: 4 miles ( 7 km)
Ceiling: at least 12,000 feet AGL
Clouds: scattered clouds at 2200 feet AGL
Weather: no significant weather observed at this time

METAR text: WIHH 191000Z 26010KT 7000 SCT020 28/23 Q1007 NOSIG
Conditions at: WIHH (HALIM PERDANAKUS, ID) observed 1000 UTC 19 March 2019
Temperature: 28.0°C (82°F)
Dewpoint: 23.0°C (73°F) [RH = 74%]
Pressure (altimeter): 29.73 inches Hg (1007.0 mb)
Winds: from the W (260 degrees) at 12 MPH (10 knots; 5.1 m/s)
Visibility: 4 miles ( 7 km)
Ceiling: at least 12,000 feet AGL
Clouds: scattered clouds at 2000 feet AGL
Weather: no significant weather observed at this time

METAR text: WIHH 190900Z 26010KT 7000 SCT020 29/23 Q1006 NOSIG
Conditions at: WIHH (HALIM PERDANAKUS, ID) observed 0900 UTC 19 March 2019
Temperature: 29.0°C (84°F)
Dewpoint: 23.0°C (73°F) [RH = 70%]
Pressure (altimeter): 29.70 inches Hg (1006.0 mb)
Winds: from the W (260 degrees) at 12 MPH (10 knots; 5.1 m/s)
Visibility: 4 miles ( 7 km)
Ceiling: at least 12,000 feet AGL
Clouds: scattered clouds at 2000 feet AGL
Weather: no significant weather observed at this time

METAR text: WIHH 190800Z 26010KT 7000 SCT018 29/23 Q1007 NOSIG
Conditions at: WIHH (HALIM PERDANAKUS, ID) observed 0800 UTC 19 March 2019
Temperature: 29.0°C (84°F)
Dewpoint: 23.0°C (73°F) [RH = 70%]
Pressure (altimeter): 29.73 inches Hg (1007.0 mb)
Winds: from the W (260 degrees) at 12 MPH (10 knots; 5.1 m/s)
Visibility: 4 miles ( 7 km)
Ceiling: at least 12,000 feet AGL
Clouds: scattered clouds at 1800 feet AGL
Weather: no significant weather observed at this time

METAR text: WIHH 190600Z 25010KT 7000 SCT020 29/23 Q1009 NOSIG
Conditions at: WIHH (HALIM PERDANAKUS, ID) observed 0600 UTC 19 March 2019
Temperature: 29.0°C (84°F)
Dewpoint: 23.0°C (73°F) [RH = 70%]
Pressure (altimeter): 29.79 inches Hg (1009.0 mb)
Winds: from the WSW (250 degrees) at 12 MPH (10 knots; 5.1 m/s)
Visibility: 4 miles ( 7 km)
Ceiling: at least 12,000 feet AGL
Clouds: scattered clouds at 2000 feet AGL
Weather: no significant weather observed at this time

METAR text: WIHH 190500Z 25010KT 7000 SCT020 28/23 Q1010 NOSIG
Conditions at: WIHH (HALIM PERDANAKUS, ID) observed 0500 UTC 19 March 2019
Temperature: 28.0°C (82°F)
Dewpoint: 23.0°C (73°F) [RH = 74%]
Pressure (altimeter): 29.82 inches Hg (1010.0 mb)
Winds: from the WSW (250 degrees) at 12 MPH (10 knots; 5.1 m/s)
Visibility: 4 miles ( 7 km)
Ceiling: at least 12,000 feet AGL
Clouds: scattered clouds at 2000 feet AGL
Weather: no significant weather observed at this time

METAR text: WIHH 190400Z 27008KT 7000 SCT020 29/24 Q1010 NOSIG
Conditions at: WIHH (HALIM PERDANAKUS, ID) observed 0400 UTC 19 March 2019
Temperature: 29.0°C (84°F)
Dewpoint: 24.0°C (75°F) [RH = 74%]
Pressure (altimeter): 29.82 inches Hg (1010.0 mb)
Winds: from the W (270 degrees) at 9 MPH (8 knots; 4.1 m/s)
Visibility: 4 miles ( 7 km)
Ceiling: at least 12,000 feet AGL
Clouds: scattered clouds at 2000 feet AGL
Weather: no significant weather observed at this time

Forecast for: WIHH (HALIM PERDANAKUS, ID)
Text: TAF WIHH 201100Z 2012/2112 24010KT 6000 FEW022
Forecast period: 1200 to 1700 UTC 20 March 2019
Forecast type: FROM: standard forecast or significant change
Winds: from the WSW (240 degrees) at 12 MPH (10 knots; 5.1 m/s)
Visibility: 4 miles (6 km)
Ceiling: at least 12,000 feet AGL
Clouds: few clouds at 2200 feet AGL
Weather: no significant weather forecast for this period
Text: BECMG 2017/2019 28004KT
Forecast period: 1700 UTC 20 March 2019 to 1200 UTC 21 March 2019
Forecast type: BECOMING: Conditions expected to become as follows by 1900 UTC 20 March 2019
Winds: from the W (280 degrees) at 5 MPH (4 knots; 2.1 m/s)
Visibility: 4 miles (6 km)
Ceiling: at least 12,000 feet AGL
Clouds: few clouds at 2200 feet AGL
Weather: no significant weather forecast for this period